Time;durP1;ratioP1;P1;durP2;ratioP2;P2;SDS_P1;SDS_P2;PMS_P1;PMS_P2;Temp;Humidity;BMP_temperature;BMP_pressure;BME280_temperature;BME280_humidity;BME280_pressure;Samples;Min_cycle;Max_cycle;Signal;HPM_P1;HPM_P2
2022/12/02 00:00:20;;;;;;;;;;;;;;;;;;4992783;28;2046;-45
2022/12/02 00:02:47;;;;;;;;;;;;;;;;;;5008061;28;2042;-47
2022/12/02 00:05:15;;;;;;;;;;;;;;;;;;4992991;28;1754;-45
2022/12/02 00:07:42;;;;;;;;;;;;;;;;;;4992602;28;2336;-50
2022/12/02 00:10:35;;;;;;;;;;;;;;;;;;4992977;28;1884;-44
2022/12/02 00:13:18;;;;;;;;;;;;;;;;;;4992534;28;2110;-44
2022/12/02 00:15:50;;;;;;;;;;;;;;;;;;4992676;28;1986;-45
2022/12/02 00:18:18;;;;;;;;;;;;;;;;;;4985294;28;1917;-45
2022/12/02 00:20:45;;;;;;;;;;;;;;;;;;4973321;28;1971;-46
2022/12/02 00:23:12;;;;;;;;;;;;;;;;;;4973178;28;2225;-48
2022/12/02 00:25:41;;;;;;;;;;;;;;;;;;4972966;28;1786;-45
2022/12/02 00:28:08;;;;;;;;;;;;;;;;;;4973012;28;2113;-45
2022/12/02 00:30:36;;;;;;;;;;;;;;;;;;4973086;28;2067;-45
2022/12/02 00:33:03;;;;;;;;;;;;;;;;;;4972733;28;1981;-49
2022/12/02 00:35:30;;;;;;;;;;;;;;;;;;4971733;28;1903;-48
2022/12/02 00:37:58;;;;;;;;;;;;;;;;;;4973043;28;1867;-48
2022/12/02 00:40:25;;;;;;;;;;;;;;;;;;4973083;28;2027;-46
2022/12/02 00:42:53;;;;;;;;;;;;;;;;;;4972940;28;2102;-46
2022/12/02 00:48:07;;;;;;;;;;;;;;;;;;4973239;28;1983;-47
2022/12/02 00:50:34;;;;;;;;;;;;;;;;;;4972893;28;2107;-48
2022/12/02 00:53:02;;;;;;;;;;;;;;;;;;4972464;28;1955;-47
2022/12/02 00:55:31;;;;;;;;;;;;;;;;;;4971349;28;1876;-46
2022/12/02 00:57:58;;;;;;;;;;;;;;;;;;4971117;28;1912;-45
2022/12/02 01:00:26;;;;;;;;;;;;;;;;;;4971318;28;1967;-48
2022/12/02 01:02:53;;;;;;;;;;;;;;;;;;4972325;28;2424;-47
2022/12/02 01:05:20;;;;;;;;;;;;;;;;;;4972732;28;2043;-47
2022/12/02 01:07:48;;;;;;;;;;;;;;;;;;4972466;28;1768;-46
2022/12/02 01:10:16;;;;;;;;;;;;;;;;;;4972359;28;2134;-46
2022/12/02 01:12:43;;;;;;;;;;;;;;;;;;4972572;28;1987;-45
2022/12/02 01:15:10;;;;;;;;;;;;;;;;;;4971064;28;2136;-44
2022/12/02 01:17:38;;;;;;;;;;;;;;;;;;4972567;28;2039;-46
2022/12/02 01:20:06;;;;;;;;;;;;;;;;;;4971282;28;1880;-47
2022/12/02 01:22:34;;;;;;;;;;;;;;;;;;4972091;28;2449;-49
2022/12/02 01:25:02;;;;;;;;;;;;;;;;;;4986909;28;1996;-48
2022/12/02 01:27:30;;;;;;;;;;;;;;;;;;4972012;28;2049;-47
2022/12/02 01:29:57;;;;;;;;;;;;;;;;;;4972388;28;2085;-46
2022/12/02 01:32:25;;;;;;;;;;;;;;;;;;4987138;28;2008;-47
2022/12/02 01:34:52;;;;;;;;;;;;;;;;;;4972222;28;2009;-49
2022/12/02 01:37:19;;;;;;;;;;;;;;;;;;4971967;28;1900;-48
2022/12/02 01:39:47;;;;;;;;;;;;;;;;;;4972625;28;2006;-47
2022/12/02 01:42:14;;;;;;;;;;;;;;;;;;4976462;28;1910;-44
2022/12/02 01:44:42;;;;;;;;;;;;;;;;;;4975809;28;1996;-43
2022/12/02 01:47:10;;;;;;;;;;;;;;;;;;4976234;28;2107;-46
2022/12/02 01:49:37;;;;;;;;;;;;;;;;;;4976269;28;2043;-46
2022/12/02 01:52:04;;;;;;;;;;;;;;;;;;4975811;28;1950;-46
2022/12/02 01:54:31;;;;;;;;;;;;;;;;;;4974668;28;2127;-49
2022/12/02 01:56:58;;;;;;;;;;;;;;;;;;4976183;28;2005;-46
2022/12/02 01:59:26;;;;;;;;;;;;;;;;;;4976017;28;1985;-44
2022/12/02 02:01:53;;;;;;;;;;;;;;;;;;4975797;28;1934;-47
2022/12/02 02:04:22;;;;;;;;;;;;;;;;;;4990362;28;1943;-48
2022/12/02 02:06:49;;;;;;;;;;;;;;;;;;4990735;28;1923;-46
2022/12/02 02:09:16;;;;;;;;;;;;;;;;;;4974353;28;1944;-48
2022/12/02 02:11:44;;;;;;;;;;;;;;;;;;4975225;28;2126;-47
2022/12/02 02:14:12;;;;;;;;;;;;;;;;;;4975810;28;1986;-43
2022/12/02 02:16:39;;;;;;;;;;;;;;;;;;4975407;28;2040;-46
2022/12/02 02:19:10;;;;;;;;;;;;;;;;;;4989017;28;2223;-44
2022/12/02 02:21:41;;;;;;;;;;;;;;;;;;5010150;28;1926;-44
2022/12/02 02:24:08;;;;;;;;;;;;;;;;;;4994838;28;1942;-47
2022/12/02 02:26:36;;;;;;;;;;;;;;;;;;4994974;28;1916;-47
2022/12/02 02:29:04;;;;;;;;;;;;;;;;;;4994991;28;1993;-47
2022/12/02 02:31:32;;;;;;;;;;;;;;;;;;4984541;28;2057;-48
2022/12/02 02:34:00;;;;;;;;;;;;;;;;;;4975133;28;2052;-46
2022/12/02 02:36:27;;;;;;;;;;;;;;;;;;4975085;28;2160;-47
2022/12/02 02:38:55;;;;;;;;;;;;;;;;;;4973595;28;2056;-45
2022/12/02 02:41:22;;;;;;;;;;;;;;;;;;4975164;28;1873;-47
2022/12/02 02:43:50;;;;;;;;;;;;;;;;;;4989711;28;2182;-45
2022/12/02 02:46:17;;;;;;;;;;;;;;;;;;4974070;28;2134;-41
2022/12/02 02:48:48;;;;;;;;;;;;;;;;;;4974668;28;1901;-45
2022/12/02 02:51:16;;;;;;;;;;;;;;;;;;4973739;28;1955;-46
2022/12/02 02:53:44;;;;;;;;;;;;;;;;;;4974794;28;1774;-44
2022/12/02 02:56:12;;;;;;;;;;;;;;;;;;4989873;28;2110;-49
2022/12/02 02:58:41;;;;;;;;;;;;;;;;;;4989799;28;2266;-45
2022/12/02 03:01:14;;;;;;;;;;;;;;;;;;4974800;28;1982;-47
2022/12/02 03:03:49;;;;;;;;;;;;;;;;;;4973281;28;2105;-47
2022/12/02 03:06:19;;;;;;;;;;;;;;;;;;4973817;28;2059;-49
2022/12/02 03:08:47;;;;;;;;;;;;;;;;;;4974388;28;1820;-44
2022/12/02 03:11:16;;;;;;;;;;;;;;;;;;4974499;28;2050;-47
2022/12/02 03:13:45;;;;;;;;;;;;;;;;;;4974558;28;2088;-46
2022/12/02 03:16:16;;;;;;;;;;;;;;;;;;4974441;28;2058;-44
2022/12/02 03:18:44;;;;;;;;;;;;;;;;;;4984570;28;2048;-49
2022/12/02 03:21:13;;;;;;;;;;;;;;;;;;4993749;28;2015;-42
2022/12/02 03:23:41;;;;;;;;;;;;;;;;;;4993387;28;1916;-45
2022/12/02 03:26:08;;;;;;;;;;;;;;;;;;4993872;28;2018;-45
2022/12/02 03:28:35;;;;;;;;;;;;;;;;;;4993849;28;2020;-47
2022/12/02 03:31:03;;;;;;;;;;;;;;;;;;4993223;28;2099;-46
2022/12/02 03:33:32;;;;;;;;;;;;;;;;;;4993478;28;1977;-47
2022/12/02 03:35:59;;;;;;;;;;;;;;;;;;4993241;28;1780;-47
2022/12/02 03:38:27;;;;;;;;;;;;;;;;;;4993498;28;2159;-46
2022/12/02 03:40:54;;;;;;;;;;;;;;;;;;4992973;28;1707;-45
2022/12/02 03:43:21;;;;;;;;;;;;;;;;;;4993435;28;1969;-44
2022/12/02 03:45:48;;;;;;;;;;;;;;;;;;4993392;28;2065;-46
2022/12/02 03:48:20;;;;;;;;;;;;;;;;;;4993487;28;1967;-46
2022/12/02 03:50:49;;;;;;;;;;;;;;;;;;4988575;28;1990;-44
2022/12/02 03:53:17;;;;;;;;;;;;;;;;;;4973403;28;1993;-47
2022/12/02 03:55:44;;;;;;;;;;;;;;;;;;4973429;28;2058;-43
2022/12/02 03:58:11;;;;;;;;;;;;;;;;;;4973828;28;2149;-46
2022/12/02 04:00:39;;;;;;;;;;;;;;;;;;4974059;28;1385;-43
2022/12/02 04:03:06;;;;;;;;;;;;;;;;;;4972535;28;2016;-47
2022/12/02 04:05:33;;;;;;;;;;;;;;;;;;4973518;28;1963;-45
2022/12/02 04:08:02;;;;;;;;;;;;;;;;;;4973244;28;1944;-46
2022/12/02 04:10:29;;;;;;;;;;;;;;;;;;4973751;28;2084;-45
2022/12/02 04:12:56;;;;;;;;;;;;;;;;;;4973367;28;1714;-46
2022/12/02 04:15:24;;;;;;;;;;;;;;;;;;4988000;28;2014;-44
2022/12/02 04:17:50;;;;;;;;;;;;;;;;;;4976511;28;1855;-47
2022/12/02 04:20:18;;;;;;;;;;;;;;;;;;5007418;28;2368;-45
2022/12/02 04:22:45;;;;;;;;;;;;;;;;;;4992549;28;2233;-46
2022/12/02 04:25:12;;;;;;;;;;;;;;;;;;4991021;28;2047;-43
2022/12/02 04:27:39;;;;;;;;;;;;;;;;;;4991333;28;2035;-44
2022/12/02 04:30:07;;;;;;;;;;;;;;;;;;4990916;28;1981;-43
2022/12/02 04:32:34;;;;;;;;;;;;;;;;;;4992377;28;1917;-43
2022/12/02 04:35:02;;;;;;;;;;;;;;;;;;4992300;28;2065;-45
2022/12/02 04:37:29;;;;;;;;;;;;;;;;;;4992193;28;1720;-46
2022/12/02 04:39:56;;;;;;;;;;;;;;;;;;4992171;28;1989;-46
2022/12/02 04:42:23;;;;;;;;;;;;;;;;;;4992187;28;1813;-46
2022/12/02 04:44:52;;;;;;;;;;;;;;;;;;4990632;28;2116;-49
2022/12/02 04:47:19;;;;;;;;;;;;;;;;;;4992112;28;2060;-47
2022/12/02 04:49:46;;;;;;;;;;;;;;;;;;4992055;28;1848;-51
2022/12/02 04:52:14;;;;;;;;;;;;;;;;;;4991627;28;2062;-43
2022/12/02 04:54:41;;;;;;;;;;;;;;;;;;4992094;28;1883;-46
2022/12/02 04:57:08;;;;;;;;;;;;;;;;;;4992117;28;2061;-43
2022/12/02 04:59:35;;;;;;;;;;;;;;;;;;4991767;28;1929;-49
2022/12/02 05:02:03;;;;;;;;;;;;;;;;;;4991791;28;1763;-45
2022/12/02 05:04:30;;;;;;;;;;;;;;;;;;4991922;28;2076;-50
2022/12/02 05:07:02;;;;;;;;;;;;;;;;;;4992051;28;2040;-42
2022/12/02 05:09:29;;;;;;;;;;;;;;;;;;4990987;28;2090;-43
2022/12/02 05:11:56;;;;;;;;;;;;;;;;;;4990188;28;2102;-44
2022/12/02 05:14:23;;;;;;;;;;;;;;;;;;4989804;28;1834;-43
2022/12/02 05:16:50;;;;;;;;;;;;;;;;;;5005395;28;2343;-43
2022/12/02 05:19:17;;;;;;;;;;;;;;;;;;4975157;28;2038;-45
2022/12/02 05:21:44;;;;;;;;;;;;;;;;;;4970695;28;2203;-44
2022/12/02 05:24:11;;;;;;;;;;;;;;;;;;4970996;28;1953;-45
2022/12/02 05:26:39;;;;;;;;;;;;;;;;;;4970909;28;2041;-45
2022/12/02 05:29:06;;;;;;;;;;;;;;;;;;4970420;28;1795;-46
2022/12/02 05:31:34;;;;;;;;;;;;;;;;;;4970805;28;1992;-48
2022/12/02 05:34:01;;;;;;;;;;;;;;;;;;4970714;28;2036;-45
2022/12/02 05:36:28;;;;;;;;;;;;;;;;;;4970744;28;1982;-47
2022/12/02 05:38:55;;;;;;;;;;;;;;;;;;4970723;28;1796;-44
2022/12/02 05:41:22;;;;;;;;;;;;;;;;;;4970705;28;1887;-43
2022/12/02 05:43:49;;;;;;;;;;;;;;;;;;4970645;28;1979;-45
2022/12/02 05:46:18;;;;;;;;;;;;;;;;;;4971366;28;1950;-45
2022/12/02 05:48:46;;;;;;;;;;;;;;;;;;4972142;28;1980;-46
2022/12/02 05:51:14;;;;;;;;;;;;;;;;;;4987093;28;2008;-46
2022/12/02 05:53:42;;;;;;;;;;;;;;;;;;4972396;28;1949;-45
2022/12/02 05:56:12;;;;;;;;;;;;;;;;;;4972239;28;1897;-44
2022/12/02 05:58:42;;;;;;;;;;;;;;;;;;4972063;28;1915;-45
2022/12/02 06:01:19;;;;;;;;;;;;;;;;;;4972076;28;2086;-43
2022/12/02 06:03:46;;;;;;;;;;;;;;;;;;4971929;28;2054;-47
2022/12/02 06:06:15;;;;;;;;;;;;;;;;;;4971524;28;2065;-48
2022/12/02 06:08:42;;;;;;;;;;;;;;;;;;4971862;28;1931;-49
2022/12/02 06:11:15;;;;;;;;;;;;;;;;;;4972136;28;1817;-43
2022/12/02 06:13:42;;;;;;;;;;;;;;;;;;4971877;28;1851;-46
2022/12/02 06:16:14;;;;;;;;;;;;;;;;;;4971842;28;1964;-44
2022/12/02 06:18:41;;;;;;;;;;;;;;;;;;4981964;28;2058;-47
2022/12/02 06:21:14;;;;;;;;;;;;;;;;;;5006068;28;2351;-46
2022/12/02 06:23:46;;;;;;;;;;;;;;;;;;4991085;28;1952;-47
2022/12/02 06:26:14;;;;;;;;;;;;;;;;;;4993347;28;2217;-46
2022/12/02 06:28:45;;;;;;;;;;;;;;;;;;4995106;28;2144;-48
2022/12/02 06:31:12;;;;;;;;;;;;;;;;;;4994834;28;9633;-45
2022/12/02 06:33:40;;;;;;;;;;;;;;;;;;4994519;28;2069;-44
2022/12/02 06:36:12;;;;;;;;;;;;;;;;;;4994145;28;2046;-48
2022/12/02 06:38:57;;;;;;;;;;;;;;;;;;4993809;28;2091;-46
2022/12/02 06:41:25;;;;;;;;;;;;;;;;;;4993825;28;1923;-46
2022/12/02 06:46:42;;;;;;;;;;;;;;;;;;4994708;28;2047;-45
2022/12/02 06:49:19;;;;;;;;;;;;;;;;;;4994599;28;1850;-43
2022/12/02 06:51:47;;;;;;;;;;;;;;;;;;4993845;28;2072;-49
2022/12/02 06:54:22;;;;;;;;;;;;;;;;;;4994203;28;1916;-42
2022/12/02 06:56:49;;;;;;;;;;;;;;;;;;4994214;28;1931;-48
2022/12/02 06:59:21;;;;;;;;;;;;;;;;;;4994067;28;2014;-46
2022/12/02 07:01:52;;;;;;;;;;;;;;;;;;4993683;28;1826;-44
2022/12/02 07:04:25;;;;;;;;;;;;;;;;;;4993695;28;1992;-47
2022/12/02 07:06:54;;;;;;;;;;;;;;;;;;4994239;28;1951;-44
2022/12/02 07:09:28;;;;;;;;;;;;;;;;;;4993731;28;1977;-44
2022/12/02 07:11:58;;;;;;;;;;;;;;;;;;4993866;28;2135;-48
2022/12/02 07:14:31;;;;;;;;;;;;;;;;;;4993798;28;2315;-44
2022/12/02 07:17:02;;;;;;;;;;;;;;;;;;4993837;28;1852;-47
2022/12/02 07:19:39;;;;;;;;;;;;;;;;;;4976356;28;2103;-49
2022/12/02 07:22:12;;;;;;;;;;;;;;;;;;4974087;28;1976;-45
2022/12/02 07:24:40;;;;;;;;;;;;;;;;;;4973664;28;2052;-44
2022/12/02 07:27:15;;;;;;;;;;;;;;;;;;4974120;28;1874;-44
2022/12/02 07:29:42;;;;;;;;;;;;;;;;;;4974476;28;1954;-47
2022/12/02 07:32:09;;;;;;;;;;;;;;;;;;4974519;28;2038;-48
2022/12/02 07:34:36;;;;;;;;;;;;;;;;;;4974280;28;2084;-47
2022/12/02 07:37:03;;;;;;;;;;;;;;;;;;4973128;28;2080;-46
2022/12/02 07:39:30;;;;;;;;;;;;;;;;;;4974270;28;1919;-46
2022/12/02 07:41:57;;;;;;;;;;;;;;;;;;4973281;28;1918;-48
2022/12/02 07:44:25;;;;;;;;;;;;;;;;;;4973432;28;2045;-47
2022/12/02 07:46:52;;;;;;;;;;;;;;;;;;4973553;28;2039;-47
2022/12/02 07:49:19;;;;;;;;;;;;;;;;;;4973722;28;1911;-45
2022/12/02 07:51:46;;;;;;;;;;;;;;;;;;4973389;28;2170;-46
2022/12/02 07:54:13;;;;;;;;;;;;;;;;;;4973439;28;1940;-43
2022/12/02 07:56:41;;;;;;;;;;;;;;;;;;4973905;28;2138;-45
2022/12/02 07:59:08;;;;;;;;;;;;;;;;;;4973668;28;1956;-45
2022/12/02 08:01:38;;;;;;;;;;;;;;;;;;4973593;28;1884;-44
2022/12/02 08:04:06;;;;;;;;;;;;;;;;;;4973313;28;2043;-46
2022/12/02 08:06:33;;;;;;;;;;;;;;;;;;4973391;28;2045;-49
2022/12/02 08:09:07;;;;;;;;;;;;;;;;;;4973532;28;2123;-44
2022/12/02 08:11:35;;;;;;;;;;;;;;;;;;4973416;28;1996;-43
2022/12/02 08:14:02;;;;;;;;;;;;;;;;;;4973097;28;1949;-44
2022/12/02 08:16:29;;;;;;;;;;;;;;;;;;4973635;28;1968;-46
2022/12/02 08:18:56;;;;;;;;;;;;;;;;;;4985358;28;1908;-44
2022/12/02 08:21:23;;;;;;;;;;;;;;;;;;4992453;28;1754;-46
2022/12/02 08:23:50;;;;;;;;;;;;;;;;;;4992575;28;2147;-48
2022/12/02 08:26:17;;;;;;;;;;;;;;;;;;4992568;28;1827;-45
2022/12/02 08:28:44;;;;;;;;;;;;;;;;;;4992106;28;1901;-46
2022/12/02 08:31:15;;;;;;;;;;;;;;;;;;4992041;28;1881;-47
2022/12/02 08:33:42;;;;;;;;;;;;;;;;;;4992760;28;2005;-46
2022/12/02 08:36:09;;;;;;;;;;;;;;;;;;4992409;28;1965;-45
2022/12/02 08:38:37;;;;;;;;;;;;;;;;;;4992418;28;1914;-46
2022/12/02 08:41:05;;;;;;;;;;;;;;;;;;4992313;28;1998;-46
2022/12/02 08:43:39;;;;;;;;;;;;;;;;;;4992190;28;1892;-44
2022/12/02 08:46:06;;;;;;;;;;;;;;;;;;4991904;28;2057;-44
2022/12/02 08:48:33;;;;;;;;;;;;;;;;;;4991248;28;1925;-48
2022/12/02 08:51:00;;;;;;;;;;;;;;;;;;4991594;28;1889;-44
2022/12/02 08:53:27;;;;;;;;;;;;;;;;;;4991987;28;2324;-47
2022/12/02 08:55:54;;;;;;;;;;;;;;;;;;4992235;28;2111;-44
2022/12/02 08:58:21;;;;;;;;;;;;;;;;;;4991850;28;1714;-46
2022/12/02 09:00:48;;;;;;;;;;;;;;;;;;4991431;28;2020;-46
2022/12/02 09:03:15;;;;;;;;;;;;;;;;;;4990268;28;1911;-48
2022/12/02 09:05:43;;;;;;;;;;;;;;;;;;4990874;28;1953;-44
2022/12/02 09:08:10;;;;;;;;;;;;;;;;;;4991807;28;2054;-45
2022/12/02 09:10:37;;;;;;;;;;;;;;;;;;4992039;28;2013;-47
2022/12/02 09:13:04;;;;;;;;;;;;;;;;;;4991448;28;1966;-44
2022/12/02 09:15:31;;;;;;;;;;;;;;;;;;4983760;28;1875;-44
2022/12/02 09:17:59;;;;;;;;;;;;;;;;;;4976688;28;1936;-47
2022/12/02 09:20:26;;;;;;;;;;;;;;;;;;4991762;28;2036;-46
2022/12/02 09:22:55;;;;;;;;;;;;;;;;;;4991246;28;1936;-47
2022/12/02 09:25:22;;;;;;;;;;;;;;;;;;4991463;28;2058;-50
2022/12/02 09:27:49;;;;;;;;;;;;;;;;;;4991713;28;2074;-44
2022/12/02 09:30:16;;;;;;;;;;;;;;;;;;4991535;28;2130;-45
2022/12/02 09:32:43;;;;;;;;;;;;;;;;;;4991676;28;1958;-46
2022/12/02 09:35:11;;;;;;;;;;;;;;;;;;4990384;28;2408;-47
2022/12/02 09:37:38;;;;;;;;;;;;;;;;;;4991321;28;2069;-46
2022/12/02 09:40:05;;;;;;;;;;;;;;;;;;4991519;28;2087;-47
2022/12/02 09:42:35;;;;;;;;;;;;;;;;;;4991621;28;1788;-47
2022/12/02 09:45:02;;;;;;;;;;;;;;;;;;4991129;28;2012;-46
2022/12/02 09:47:29;;;;;;;;;;;;;;;;;;4990946;28;1953;-49
2022/12/02 09:49:56;;;;;;;;;;;;;;;;;;4991212;28;1998;-44
2022/12/02 09:52:25;;;;;;;;;;;;;;;;;;4991744;28;2133;-45
2022/12/02 09:54:56;;;;;;;;;;;;;;;;;;4991272;28;1940;-47
2022/12/02 09:57:26;;;;;;;;;;;;;;;;;;4990938;28;2217;-46
2022/12/02 09:59:53;;;;;;;;;;;;;;;;;;4991531;28;1833;-46
2022/12/02 10:02:20;;;;;;;;;;;;;;;;;;4982809;28;2015;-47
2022/12/02 10:04:47;;;;;;;;;;;;;;;;;;4975926;28;1988;-49
2022/12/02 10:07:15;;;;;;;;;;;;;;;;;;4975422;28;2005;-48
2022/12/02 10:09:42;;;;;;;;;;;;;;;;;;4975663;28;2113;-46
2022/12/02 10:12:12;;;;;;;;;;;;;;;;;;4975860;28;1969;-44
2022/12/02 10:14:42;;;;;;;;;;;;;;;;;;4975498;28;1944;-46
2022/12/02 10:17:13;;;;;;;;;;;;;;;;;;4975682;28;2108;-46
2022/12/02 10:19:41;;;;;;;;;;;;;;;;;;4993396;28;1931;-48
2022/12/02 10:22:13;;;;;;;;;;;;;;;;;;4995034;28;1913;-48
2022/12/02 10:24:40;;;;;;;;;;;;;;;;;;4994282;28;1915;-45
2022/12/02 10:27:07;;;;;;;;;;;;;;;;;;4994989;28;1888;-44
2022/12/02 10:29:34;;;;;;;;;;;;;;;;;;4978784;28;1786;-47
2022/12/02 10:32:01;;;;;;;;;;;;;;;;;;4980650;28;2067;-45
2022/12/02 10:34:29;;;;;;;;;;;;;;;;;;4995045;28;2201;-45
2022/12/02 10:37:13;;;;;;;;;;;;;;;;;;4994709;28;1872;-45
2022/12/02 10:39:40;;;;;;;;;;;;;;;;;;4994936;28;1997;-47
2022/12/02 10:42:20;;;;;;;;;;;;;;;;;;4994423;28;1918;-44
2022/12/02 10:45:07;;;;;;;;;;;;;;;;;;4994646;28;1973;-45
2022/12/02 10:47:34;;;;;;;;;;;;;;;;;;4994077;28;2056;-48
2022/12/02 10:50:02;;;;;;;;;;;;;;;;;;4994545;28;1885;-44
2022/12/02 10:52:34;;;;;;;;;;;;;;;;;;4994207;28;1826;-45
2022/12/02 10:55:02;;;;;;;;;;;;;;;;;;4994735;28;2046;-45
2022/12/02 10:57:32;;;;;;;;;;;;;;;;;;4994129;28;1852;-47
2022/12/02 11:00:01;;;;;;;;;;;;;;;;;;4993823;28;2045;-46
2022/12/02 11:02:54;;;;;;;;;;;;;;;;;;4993944;28;1891;-45
2022/12/02 11:05:22;;;;;;;;;;;;;;;;;;4993541;28;2024;-46
2022/12/02 11:07:54;;;;;;;;;;;;;;;;;;4993809;28;1823;-44
2022/12/02 11:10:23;;;;;;;;;;;;;;;;;;4993757;28;2066;-48
2022/12/02 11:12:50;;;;;;;;;;;;;;;;;;4992934;28;1957;-48
2022/12/02 11:15:34;;;;;;;;;;;;;;;;;;4993552;28;1984;-46
2022/12/02 11:18:01;;;;;;;;;;;;;;;;;;4993427;28;1541;-44
2022/12/02 11:20:28;;;;;;;;;;;;;;;;;;4993757;28;1806;-47
2022/12/02 11:23:14;;;;;;;;;;;;;;;;;;4993518;28;1865;-46
2022/12/02 11:25:41;;;;;;;;;;;;;;;;;;4993238;28;1983;-47
2022/12/02 11:28:14;;;;;;;;;;;;;;;;;;4993570;28;2131;-48
2022/12/02 11:30:42;;;;;;;;;;;;;;;;;;4993571;28;1820;-46
2022/12/02 11:33:09;;;;;;;;;;;;;;;;;;4993171;28;2039;-44
2022/12/02 11:35:55;;;;;;;;;;;;;;;;;;4993624;28;1850;-48
2022/12/02 11:38:25;;;;;;;;;;;;;;;;;;4993726;28;2070;-47
2022/12/02 11:40:54;;;;;;;;;;;;;;;;;;4993564;28;2135;-45
2022/12/02 11:44:00;;;;;;;;;;;;;;;;;;4993034;28;2202;-47
2022/12/02 11:46:37;;;;;;;;;;;;;;;;;;4971655;28;2321;-45
2022/12/02 11:49:18;;;;;;;;;;;;;;;;;;4971427;28;1814;-47
2022/12/02 11:51:45;;;;;;;;;;;;;;;;;;4985338;28;2048;-43
2022/12/02 11:54:14;;;;;;;;;;;;;;;;;;4993389;28;1976;-49
2022/12/02 11:56:42;;;;;;;;;;;;;;;;;;4993271;28;1954;-46
2022/12/02 11:59:20;;;;;;;;;;;;;;;;;;4993043;28;2023;-46
2022/12/02 12:01:47;;;;;;;;;;;;;;;;;;4993052;28;2368;-45
2022/12/02 12:04:25;;;;;;;;;;;;;;;;;;4993252;28;2084;-44
2022/12/02 12:06:52;;;;;;;;;;;;;;;;;;4993094;28;1966;-45
2022/12/02 12:09:20;;;;;;;;;;;;;;;;;;4993283;28;2070;-49
2022/12/02 12:12:04;;;;;;;;;;;;;;;;;;4992904;28;1954;-47
2022/12/02 12:14:31;;;;;;;;;;;;;;;;;;4992937;28;1921;-48
2022/12/02 12:17:14;;;;;;;;;;;;;;;;;;4992318;28;2081;-47
2022/12/02 12:19:42;;;;;;;;;;;;;;;;;;4974263;28;2087;-44
2022/12/02 12:22:25;;;;;;;;;;;;;;;;;;4973162;28;1892;-44
2022/12/02 12:24:52;;;;;;;;;;;;;;;;;;4972955;28;1975;-45
2022/12/02 12:27:36;;;;;;;;;;;;;;;;;;4973066;28;1909;-49
2022/12/02 12:30:04;;;;;;;;;;;;;;;;;;4972743;28;2038;-47
2022/12/02 12:32:31;;;;;;;;;;;;;;;;;;4973058;28;2034;-46
2022/12/02 12:34:58;;;;;;;;;;;;;;;;;;4973120;28;2000;-46
2022/12/02 12:37:25;;;;;;;;;;;;;;;;;;4972866;28;1935;-47
2022/12/02 12:39:52;;;;;;;;;;;;;;;;;;4972841;28;2057;-47
2022/12/02 12:42:22;;;;;;;;;;;;;;;;;;4972673;28;2152;-46
2022/12/02 12:44:51;;;;;;;;;;;;;;;;;;4972607;28;2119;-47
2022/12/02 12:47:18;;;;;;;;;;;;;;;;;;4972908;28;1953;-45
2022/12/02 12:49:49;;;;;;;;;;;;;;;;;;4972362;28;2072;-44
2022/12/02 12:52:16;;;;;;;;;;;;;;;;;;4972436;28;1844;-43
2022/12/02 12:54:49;;;;;;;;;;;;;;;;;;4972797;28;2078;-50
2022/12/02 12:57:16;;;;;;;;;;;;;;;;;;4972456;28;1928;-44
2022/12/02 12:59:43;;;;;;;;;;;;;;;;;;4972861;28;1999;-48
2022/12/02 13:02:10;;;;;;;;;;;;;;;;;;4972493;28;2113;-46
2022/12/02 13:04:38;;;;;;;;;;;;;;;;;;4972505;28;1908;-46
2022/12/02 13:07:05;;;;;;;;;;;;;;;;;;4972571;28;1971;-47
2022/12/02 13:09:32;;;;;;;;;;;;;;;;;;4971973;28;1886;-47
2022/12/02 13:11:59;;;;;;;;;;;;;;;;;;4972621;28;2161;-46
2022/12/02 13:14:26;;;;;;;;;;;;;;;;;;4972587;28;2152;-47
2022/12/02 13:16:53;;;;;;;;;;;;;;;;;;4972488;28;1996;-44
2022/12/02 13:19:21;;;;;;;;;;;;;;;;;;4972009;28;2164;-44
2022/12/02 13:21:48;;;;;;;;;;;;;;;;;;4972293;28;1956;-43
2022/12/02 13:24:16;;;;;;;;;;;;;;;;;;4972278;28;2090;-46
2022/12/02 13:26:44;;;;;;;;;;;;;;;;;;4972190;28;2048;-47
2022/12/02 13:29:11;;;;;;;;;;;;;;;;;;4972561;28;1733;-47
2022/12/02 13:31:38;;;;;;;;;;;;;;;;;;4972038;28;2222;-46
2022/12/02 13:34:05;;;;;;;;;;;;;;;;;;4971955;28;1927;-45
2022/12/02 13:36:32;;;;;;;;;;;;;;;;;;4977386;28;1979;-47
2022/12/02 13:38:59;;;;;;;;;;;;;;;;;;4978678;28;2261;-47
2022/12/02 13:41:31;;;;;;;;;;;;;;;;;;4978655;28;1726;-45
2022/12/02 13:43:58;;;;;;;;;;;;;;;;;;4979828;28;2308;-43
2022/12/02 13:46:25;;;;;;;;;;;;;;;;;;4997543;28;1973;-44
2022/12/02 13:48:53;;;;;;;;;;;;;;;;;;4997788;28;2018;-46
2022/12/02 13:51:20;;;;;;;;;;;;;;;;;;4997509;28;2088;-45
2022/12/02 13:53:47;;;;;;;;;;;;;;;;;;4998139;28;2008;-46
2022/12/02 13:56:14;;;;;;;;;;;;;;;;;;4997783;28;1932;-46
2022/12/02 13:58:41;;;;;;;;;;;;;;;;;;4997670;28;2071;-48
2022/12/02 14:01:08;;;;;;;;;;;;;;;;;;4997729;28;1894;-44
2022/12/02 14:03:35;;;;;;;;;;;;;;;;;;4997953;28;2026;-48
2022/12/02 14:06:03;;;;;;;;;;;;;;;;;;4992848;28;2351;-47
2022/12/02 14:08:30;;;;;;;;;;;;;;;;;;4994133;28;1827;-47
2022/12/02 14:10:57;;;;;;;;;;;;;;;;;;4997584;28;2117;-48
2022/12/02 14:13:24;;;;;;;;;;;;;;;;;;4995031;28;2282;-50
2022/12/02 14:15:51;;;;;;;;;;;;;;;;;;4992962;28;2335;-47
2022/12/02 14:18:18;;;;;;;;;;;;;;;;;;4985379;28;2063;-47
2022/12/02 14:20:45;;;;;;;;;;;;;;;;;;4997356;28;1951;-45
2022/12/02 14:23:12;;;;;;;;;;;;;;;;;;4997751;28;1992;-47
2022/12/02 14:25:39;;;;;;;;;;;;;;;;;;4997510;28;2135;-44
2022/12/02 14:28:06;;;;;;;;;;;;;;;;;;4997559;28;2072;-48
2022/12/02 14:30:34;;;;;;;;;;;;;;;;;;4997832;28;2140;-50
2022/12/02 14:33:01;;;;;;;;;;;;;;;;;;4997394;28;1927;-49
2022/12/02 14:35:28;;;;;;;;;;;;;;;;;;4997910;28;2246;-47
2022/12/02 14:37:55;;;;;;;;;;;;;;;;;;4997542;28;1944;-44
2022/12/02 14:40:22;;;;;;;;;;;;;;;;;;4997162;28;1908;-45
2022/12/02 14:42:53;;;;;;;;;;;;;;;;;;4985167;28;2344;-44
2022/12/02 14:45:20;;;;;;;;;;;;;;;;;;4997648;28;1850;-48
2022/12/02 14:47:49;;;;;;;;;;;;;;;;;;4994937;28;2003;-46
2022/12/02 14:50:16;;;;;;;;;;;;;;;;;;4994549;28;1860;-45
2022/12/02 14:52:45;;;;;;;;;;;;;;;;;;4994687;28;1959;-42
2022/12/02 14:55:14;;;;;;;;;;;;;;;;;;4993275;28;2046;-46
2022/12/02 14:57:41;;;;;;;;;;;;;;;;;;4979124;28;1933;-46
2022/12/02 15:00:10;;;;;;;;;;;;;;;;;;4978153;28;2014;-45
2022/12/02 15:02:37;;;;;;;;;;;;;;;;;;4994421;28;2017;-44
2022/12/02 15:05:04;;;;;;;;;;;;;;;;;;4994214;28;2074;-48
2022/12/02 15:07:39;;;;;;;;;;;;;;;;;;4994330;28;2043;-45
2022/12/02 15:10:08;;;;;;;;;;;;;;;;;;4993137;28;1981;-48
2022/12/02 15:12:35;;;;;;;;;;;;;;;;;;4993401;28;1939;-47
2022/12/02 15:15:04;;;;;;;;;;;;;;;;;;4994161;28;2005;-47
2022/12/02 15:17:53;;;;;;;;;;;;;;;;;;4993938;28;2127;-45
2022/12/02 15:20:22;;;;;;;;;;;;;;;;;;4992530;28;2256;-45
2022/12/02 15:22:50;;;;;;;;;;;;;;;;;;4993924;28;2162;-47
2022/12/02 15:25:17;;;;;;;;;;;;;;;;;;4993851;28;1903;-43
2022/12/02 15:27:44;;;;;;;;;;;;;;;;;;4993807;28;1980;-48
2022/12/02 15:30:11;;;;;;;;;;;;;;;;;;4993442;28;1949;-48
2022/12/02 15:32:39;;;;;;;;;;;;;;;;;;4993591;28;1962;-44
2022/12/02 15:35:07;;;;;;;;;;;;;;;;;;4993351;28;2003;-47
2022/12/02 15:37:34;;;;;;;;;;;;;;;;;;4986064;28;1994;-44
2022/12/02 15:40:01;;;;;;;;;;;;;;;;;;4974077;28;1769;-43
2022/12/02 15:42:28;;;;;;;;;;;;;;;;;;4978679;28;2152;-45
2022/12/02 15:44:55;;;;;;;;;;;;;;;;;;4973866;28;1914;-49
2022/12/02 15:47:22;;;;;;;;;;;;;;;;;;4982313;28;2057;-48
2022/12/02 15:49:49;;;;;;;;;;;;;;;;;;4993244;28;2042;-45
2022/12/02 15:52:16;;;;;;;;;;;;;;;;;;4993456;28;1911;-48
2022/12/02 15:54:43;;;;;;;;;;;;;;;;;;4993567;28;2082;-46
2022/12/02 15:57:10;;;;;;;;;;;;;;;;;;4993072;28;1926;-43
2022/12/02 15:59:37;;;;;;;;;;;;;;;;;;4992724;28;2025;-47
2022/12/02 16:02:04;;;;;;;;;;;;;;;;;;4992796;28;1977;-45
2022/12/02 16:04:32;;;;;;;;;;;;;;;;;;4991169;28;2173;-50
2022/12/02 16:06:59;;;;;;;;;;;;;;;;;;4973566;28;1948;-48
2022/12/02 16:09:26;;;;;;;;;;;;;;;;;;4973636;28;1838;-48
2022/12/02 16:11:53;;;;;;;;;;;;;;;;;;4973495;28;2015;-48
2022/12/02 16:14:20;;;;;;;;;;;;;;;;;;4973513;28;2043;-48
2022/12/02 16:16:47;;;;;;;;;;;;;;;;;;4973415;28;1900;-48
2022/12/02 16:19:14;;;;;;;;;;;;;;;;;;4973598;28;1823;-50
2022/12/02 16:21:42;;;;;;;;;;;;;;;;;;4973438;28;2052;-47
2022/12/02 16:24:09;;;;;;;;;;;;;;;;;;4973141;28;1898;-48
2022/12/02 16:26:36;;;;;;;;;;;;;;;;;;4973294;28;2022;-44
2022/12/02 16:29:03;;;;;;;;;;;;;;;;;;4973050;28;1950;-49
2022/12/02 16:31:30;;;;;;;;;;;;;;;;;;4973157;28;2251;-46
2022/12/02 16:33:57;;;;;;;;;;;;;;;;;;4973217;28;1957;-47
2022/12/02 16:36:25;;;;;;;;;;;;;;;;;;4972845;28;1788;-49
2022/12/02 16:38:52;;;;;;;;;;;;;;;;;;4973014;28;2056;-49
2022/12/02 16:41:20;;;;;;;;;;;;;;;;;;4973072;28;1841;-45
2022/12/02 16:43:47;;;;;;;;;;;;;;;;;;4973157;28;1893;-49
2022/12/02 16:46:14;;;;;;;;;;;;;;;;;;4975056;28;1908;-46
2022/12/02 16:48:44;;;;;;;;;;;;;;;;;;4992343;28;2058;-49
2022/12/02 16:51:11;;;;;;;;;;;;;;;;;;4992302;28;1846;-48
2022/12/02 16:53:38;;;;;;;;;;;;;;;;;;4992185;28;1959;-47
2022/12/02 16:56:06;;;;;;;;;;;;;;;;;;4991990;28;2049;-45
2022/12/02 16:58:33;;;;;;;;;;;;;;;;;;4992170;28;1842;-47
2022/12/02 17:01:05;;;;;;;;;;;;;;;;;;4992129;28;2114;-48
2022/12/02 17:03:32;;;;;;;;;;;;;;;;;;4992219;28;1983;-44
2022/12/02 17:05:59;;;;;;;;;;;;;;;;;;4978325;28;2004;-50
2022/12/02 17:08:26;;;;;;;;;;;;;;;;;;4972496;28;1958;-47
2022/12/02 17:10:53;;;;;;;;;;;;;;;;;;4971796;28;1945;-46
2022/12/02 17:13:20;;;;;;;;;;;;;;;;;;4972582;28;2097;-48
2022/12/02 17:15:47;;;;;;;;;;;;;;;;;;4972808;28;1905;-48
2022/12/02 17:18:14;;;;;;;;;;;;;;;;;;4972158;28;2187;-45